Time;durP1;ratioP1;P1;durP2;ratioP2;P2;SDS_P1;SDS_P2;PMS_P1;PMS_P2;Temp;Humidity;BMP_temperature;BMP_pressure;BME280_temperature;BME280_humidity;BME280_pressure;Samples;Min_cycle;Max_cycle;Signal;HPM_P1;HPM_P2
2021/01/27 00:00:06;;;;;;;10.07;7.03;;;;;;;2.09;83.45;98189.41;5006132;28;20293;-79
2021/01/27 00:02:33;;;;;;;10.73;7.20;;;;;;;2.11;83.87;98190.28;5012095;28;20315;-79
2021/01/27 00:05:00;;;;;;;10.03;6.50;;;;;;;2.12;83.37;98183.41;5013564;28;20230;-80
2021/01/27 00:07:27;;;;;;;9.10;5.93;;;;;;;2.05;83.33;98189.44;5012657;28;20810;-79
2021/01/27 00:09:53;;;;;;;9.17;6.40;;;;;;;2.00;83.41;98179.16;5013527;28;20219;-78
2021/01/27 00:12:19;;;;;;;11.23;7.00;;;;;;;2.07;83.42;98180.84;5004145;28;20235;-80
2021/01/27 00:14:46;;;;;;;8.73;6.80;;;;;;;2.07;83.42;98180.84;5006198;28;21195;-79
2021/01/27 00:17:12;;;;;;;11.70;6.43;;;;;;;2.02;83.15;98181.72;5031860;28;20894;-79
2021/01/27 00:19:38;;;;;;;11.60;6.80;;;;;;;2.03;83.58;98176.59;5039085;28;20210;-79
2021/01/27 00:22:04;;;;;;;11.10;7.20;;;;;;;1.98;83.48;98175.75;5011294;28;20297;-79
2021/01/27 00:24:31;;;;;;;11.63;6.77;;;;;;;1.96;83.44;98172.31;5008154;28;20234;-79
2021/01/27 00:26:58;;;;;;;8.83;6.13;;;;;;;1.93;83.50;98168.06;5028313;28;20250;-79
2021/01/27 00:29:25;;;;;;;11.20;6.60;;;;;;;1.92;83.60;98171.47;5035889;28;20308;-79
2021/01/27 00:31:51;;;;;;;10.90;7.10;;;;;;;1.90;83.49;98157.75;5011876;28;20341;-78
2021/01/27 00:34:20;;;;;;;7.80;6.33;;;;;;;1.92;83.56;98155.19;4991320;28;20249;-79
2021/01/27 00:36:47;;;;;;;9.27;7.03;;;;;;;1.95;83.52;98157.75;5029636;28;20241;-79
2021/01/27 00:39:13;;;;;;;10.10;6.13;;;;;;;1.96;83.34;98156.88;5036473;28;20211;-79
2021/01/27 00:41:40;;;;;;;10.90;6.77;;;;;;;1.94;83.10;98161.19;5016925;28;20238;-78
2021/01/27 00:44:07;;;;;;;9.43;6.13;;;;;;;1.92;82.92;98160.34;5009092;28;20771;-79
2021/01/27 00:46:33;;;;;;;9.87;6.60;;;;;;;1.93;83.05;98151.78;5027307;28;20249;-80
2021/01/27 00:49:00;;;;;;;8.23;6.17;;;;;;;1.90;83.04;98151.78;5037458;28;20222;-79
2021/01/27 00:51:26;;;;;;;7.47;5.70;;;;;;;1.84;82.90;98162.06;5017841;28;20630;-79
2021/01/27 00:53:53;;;;;;;8.93;6.10;;;;;;;1.89;82.90;98155.19;5007764;28;20870;-79
2021/01/27 00:56:20;;;;;;;9.30;6.00;;;;;;;1.92;82.98;98161.19;5023307;28;20234;-80
2021/01/27 00:58:47;;;;;;;9.73;6.57;;;;;;;1.96;82.91;98156.88;5039106;28;20222;-79
2021/01/27 01:01:13;;;;;;;8.50;6.53;;;;;;;2.01;82.79;98157.72;5022050;28;20641;-79
2021/01/27 01:03:40;;;;;;;12.13;6.70;;;;;;;2.07;82.88;98155.13;5007950;28;20241;-81
2021/01/27 01:06:06;;;;;;;10.40;6.83;;;;;;;2.13;82.51;98146.50;5021449;28;20299;-79
2021/01/27 01:08:32;;;;;;;11.13;6.27;;;;;;;2.17;82.54;98144.78;5036242;28;20218;-78
2021/01/27 01:11:00;;;;;;;11.47;6.17;;;;;;;2.10;82.33;98144.81;5021346;28;20241;-78
2021/01/27 01:13:30;;;;;;;9.93;7.07;;;;;;;2.08;82.15;98140.56;5008415;28;20452;-78
2021/01/27 01:15:57;;;;;;;7.93;6.27;;;;;;;2.09;82.29;98137.94;5019689;28;20346;-79
2021/01/27 01:18:24;;;;;;;9.57;6.50;;;;;;;2.09;82.39;98137.94;5036783;28;20219;-79
2021/01/27 01:20:50;;;;;;;11.17;7.07;;;;;;;2.11;82.50;98133.69;5027197;28;20246;-80
2021/01/27 01:23:19;;;;;;;10.57;6.87;;;;;;;2.14;82.61;98134.53;5008043;28;20225;-78
2021/01/27 01:25:46;;;;;;;10.83;6.53;;;;;;;2.13;82.36;98125.94;5016486;28;20849;-79
2021/01/27 01:28:13;;;;;;;10.90;7.10;;;;;;;2.09;82.30;98122.50;5038208;28;20261;-78
2021/01/27 01:30:40;;;;;;;11.33;7.40;;;;;;;2.09;82.31;98122.50;5028830;28;20357;-79
2021/01/27 01:33:09;;;;;;;11.23;7.20;;;;;;;2.09;82.56;98121.66;5008247;28;20221;-79
2021/01/27 01:35:36;;;;;;;10.83;6.90;;;;;;;2.08;82.27;98122.53;5012839;28;20233;-78
2021/01/27 01:38:02;;;;;;;10.60;7.27;;;;;;;2.07;82.84;98123.41;5037035;28;20225;-78
2021/01/27 01:40:30;;;;;;;12.50;7.73;;;;;;;2.06;82.97;98113.94;5029519;28;20812;-79
2021/01/27 01:43:06;;;;;;;14.20;8.50;;;;;;;2.04;82.71;98121.69;5009646;28;20224;-79
2021/01/27 01:45:34;;;;;;;12.87;8.00;;;;;;;1.99;83.16;98110.56;5013324;28;20233;-79
2021/01/27 01:48:04;;;;;;;12.87;8.90;;;;;;;1.92;83.74;98122.59;5037098;28;20216;-81
2021/01/27 01:50:32;;;;;;;12.10;9.00;;;;;;;1.99;83.55;98118.28;5032070;28;20267;-79
2021/01/27 01:52:59;;;;;;;15.33;9.83;;;;;;;1.98;83.57;98119.13;5015251;28;20330;-79
2021/01/27 01:55:25;;;;;;;16.27;10.10;;;;;;;1.96;83.80;98115.72;5008426;28;20609;-79
2021/01/27 01:57:54;;;;;;;16.83;10.17;;;;;;;1.84;84.46;98110.63;5033283;28;20344;-79
2021/01/27 02:00:22;;;;;;;14.33;9.77;;;;;;;1.89;84.52;98116.63;5037770;28;20301;-78
2021/01/27 02:02:49;;;;;;;14.03;9.80;;;;;;;1.95;84.07;98116.59;5015206;28;20251;-79
2021/01/27 02:05:18;;;;;;;15.10;9.90;;;;;;;1.92;83.87;98124.31;5008172;28;20616;-78
2021/01/27 02:07:45;;;;;;;16.20;10.50;;;;;;;1.90;84.68;98118.34;5037549;28;20228;-79
2021/01/27 02:10:13;;;;;;;13.53;9.70;;;;;;;1.84;84.71;98115.78;5033762;28;20211;-79
2021/01/27 02:12:50;;;;;;;15.77;10.27;;;;;;;1.74;85.01;98110.66;5017230;28;20253;-79
2021/01/27 02:15:29;;;;;;;15.63;10.67;;;;;;;1.84;84.07;98105.47;5015924;28;20338;-79
2021/01/27 02:18:00;;;;;;;15.87;10.80;;;;;;;1.89;84.25;98114.03;5037502;28;20290;-79
2021/01/27 02:20:56;;;;;;;18.67;10.93;;;;;;;1.91;84.23;98107.16;5031542;28;20333;-79
2021/01/27 02:23:45;;;;;;;19.87;11.97;;;;;;;1.92;84.39;98114.03;5003023;28;20796;-79
2021/01/27 02:26:44;;;;;;;16.63;11.47;;;;;;;1.95;84.64;98108.88;5021276;28;20295;-78
2021/01/27 02:29:44;;;;;;;17.00;11.40;;;;;;;1.96;84.17;98105.44;5035584;28;20256;-79
2021/01/27 02:32:32;;;;;;;15.93;10.73;;;;;;;1.88;84.48;98102.06;5006237;28;20324;-79
2021/01/27 02:35:04;;;;;;;16.77;11.17;;;;;;;1.91;84.78;98099.44;5015508;28;20231;-80
2021/01/27 02:37:34;;;;;;;17.27;11.80;;;;;;;1.92;84.86;98106.31;5015864;28;20542;-80
2021/01/27 02:40:05;;;;;;;19.37;11.97;;;;;;;1.90;84.61;98105.47;5015241;28;20221;-78
2021/01/27 02:42:36;;;;;;;18.57;12.10;;;;;;;1.96;84.59;98105.44;5016617;28;20236;-80
2021/01/27 02:45:08;;;;;;;18.87;12.13;;;;;;;2.00;84.60;98112.25;5016199;28;20227;-78
2021/01/27 02:47:38;;;;;;;17.63;12.03;;;;;;;2.05;84.54;98115.69;5035370;28;20227;-79
2021/01/27 02:50:09;;;;;;;15.43;11.83;;;;;;;2.07;84.34;98108.81;5034068;28;20229;-78
2021/01/27 02:52:38;;;;;;;16.33;11.30;;;;;;;2.04;84.15;98106.25;5007143;28;20338;-80
2021/01/27 02:55:11;;;;;;;16.87;11.40;;;;;;;2.05;84.52;98112.25;5006114;28;20234;-79
2021/01/27 02:57:41;;;;;;;19.30;12.37;;;;;;;2.07;84.50;98098.50;5007792;28;20711;-79
2021/01/27 03:00:12;;;;;;;17.27;11.87;;;;;;;1.99;84.98;98095.13;5007679;28;20271;-80
2021/01/27 03:02:41;;;;;;;18.40;12.60;;;;;;;2.07;84.28;98098.50;5037087;28;20857;-79
2021/01/27 03:05:12;;;;;;;19.93;12.80;;;;;;;2.13;84.48;98092.47;5035672;28;20231;-79
2021/01/27 03:07:40;;;;;;;18.73;11.97;;;;;;;2.16;83.91;98096.75;5007203;28;20646;-80
2021/01/27 03:10:09;;;;;;;20.03;12.50;;;;;;;2.16;84.01;98096.75;5005886;28;20230;-80
2021/01/27 03:12:35;;;;;;;17.67;11.97;;;;;;;2.14;84.38;98091.63;5036927;28;20691;-79
2021/01/27 03:15:02;;;;;;;18.23;12.03;;;;;;;2.16;83.92;98086.47;5035685;28;20246;-80
2021/01/27 03:17:30;;;;;;;19.40;11.73;;;;;;;2.14;84.02;98090.78;5033310;28;20244;-80
2021/01/27 03:20:00;;;;;;;18.67;12.50;;;;;;;2.17;83.96;98083.00;5036656;28;20218;-79
2021/01/27 03:22:32;;;;;;;20.87;12.33;;;;;;;2.20;83.50;98080.44;5035167;28;20257;-79
2021/01/27 03:25:00;;;;;;;18.53;12.30;;;;;;;2.20;83.64;98083.00;5037634;28;20242;-80
2021/01/27 03:27:31;;;;;;;20.60;12.03;;;;;;;2.19;83.65;98086.44;5034685;28;20336;-80
2021/01/27 03:29:58;;;;;;;18.77;12.13;;;;;;;2.17;83.72;98083.00;5035588;28;20557;-78
2021/01/27 03:32:35;;;;;;;21.13;12.80;;;;;;;2.14;83.44;98077.91;5015345;28;20245;-79
2021/01/27 03:35:07;;;;;;;16.83;11.70;;;;;;;2.07;83.33;98077.94;5015263;28;20242;-78
2021/01/27 03:37:37;;;;;;;15.33;11.43;;;;;;;1.97;83.51;98068.56;5016028;28;20231;-78
2021/01/27 03:40:08;;;;;;;16.63;11.73;;;;;;;1.88;83.15;98071.19;5015732;28;20215;-80
2021/01/27 03:42:40;;;;;;;15.23;10.87;;;;;;;1.82;83.24;98071.19;5036119;28;20219;-79
2021/01/27 03:45:09;;;;;;;18.40;12.43;;;;;;;1.79;83.30;98066.94;5034712;28;20234;-78
2021/01/27 03:47:39;;;;;;;17.07;10.63;;;;;;;1.71;83.22;98073.84;5007365;28;20216;-79
2021/01/27 03:50:09;;;;;;;17.30;11.10;;;;;;;1.60;83.29;98068.75;5008993;28;20273;-78
2021/01/27 03:52:39;;;;;;;16.43;10.80;;;;;;;1.57;83.30;98084.19;5040121;28;20233;-79
2021/01/27 03:55:10;;;;;;;17.77;11.17;;;;;;;1.52;83.16;98083.34;5040298;28;20743;-78
2021/01/27 03:57:41;;;;;;;18.47;11.53;;;;;;;1.43;83.33;98075.66;5039597;28;20250;-79
2021/01/27 04:00:08;;;;;;;19.60;11.40;;;;;;;1.42;83.67;98086.81;5038672;28;20225;-78
2021/01/27 04:02:34;;;;;;;17.37;10.70;;;;;;;1.39;83.46;98081.66;5009313;28;20222;-79
2021/01/27 04:05:01;;;;;;;16.70;11.13;;;;;;;1.38;83.42;98083.38;4992261;28;20236;-79
2021/01/27 04:07:27;;;;;;;15.23;11.03;;;;;;;1.35;83.44;98079.09;5034404;28;20235;-79
2021/01/27 04:09:54;;;;;;;18.37;11.13;;;;;;;1.33;83.42;98082.53;5036510;28;20714;-79
2021/01/27 04:12:20;;;;;;;17.97;11.60;;;;;;;1.25;83.24;98080.00;5037360;28;20302;-79
2021/01/27 04:14:47;;;;;;;17.60;10.17;;;;;;;1.19;83.48;98077.44;5038308;28;20252;-80
2021/01/27 04:17:17;;;;;;;16.63;11.10;;;;;;;1.11;83.16;98074.03;5007934;28;20250;-79
2021/01/27 04:19:43;;;;;;;14.60;10.07;;;;;;;1.06;83.43;98083.47;5010356;28;20825;-79
2021/01/27 04:22:09;;;;;;;17.07;10.20;;;;;;;0.97;83.13;98076.59;5031553;28;20245;-81
2021/01/27 04:24:36;;;;;;;13.90;9.17;;;;;;;0.89;83.22;98071.50;5036047;28;20238;-80
2021/01/27 04:27:03;;;;;;;15.40;9.53;;;;;;;0.83;83.33;98074.06;5014094;28;20235;-78
2021/01/27 04:29:29;;;;;;;13.57;9.70;;;;;;;0.82;83.53;98068.94;5008971;28;20215;-78
2021/01/27 04:31:55;;;;;;;17.37;9.83;;;;;;;0.81;83.76;98062.97;5029547;28;20238;-79
2021/01/27 04:34:22;;;;;;;17.30;9.67;;;;;;;0.84;83.48;98056.94;5034851;28;20250;-78
2021/01/27 04:36:48;;;;;;;18.23;9.67;;;;;;;0.84;83.40;98056.94;5024505;28;20249;-80
2021/01/27 04:39:14;;;;;;;17.20;10.10;;;;;;;0.82;83.54;98049.25;5016862;28;20756;-79
2021/01/27 04:41:41;;;;;;;18.30;10.00;;;;;;;0.84;83.20;98051.81;5030941;28;20785;-79
2021/01/27 04:44:08;;;;;;;18.73;9.80;;;;;;;0.77;83.20;98053.53;5038144;28;20237;-79
2021/01/27 04:46:36;;;;;;;13.27;8.63;;;;;;;0.70;83.14;98051.81;5017531;28;20239;-80
2021/01/27 04:49:06;;;;;;;14.57;9.30;;;;;;;0.64;83.20;98051.81;5010770;28;20215;-79
2021/01/27 04:51:36;;;;;;;16.80;9.83;;;;;;;0.57;82.98;98044.13;5022235;28;20297;-79
2021/01/27 04:54:13;;;;;;;14.67;8.70;;;;;;;0.48;83.24;98039.00;5037146;28;20303;-80
2021/01/27 04:56:59;;;;;;;16.50;9.77;;;;;;;0.44;83.41;98037.31;5024069;28;20238;-80
2021/01/27 04:59:45;;;;;;;20.67;11.33;;;;;;;0.44;83.01;98028.72;5018235;28;20242;-79
2021/01/27 05:02:19;;;;;;;19.33;11.63;;;;;;;0.44;83.14;98031.28;5033836;28;20989;-79
2021/01/27 05:05:08;;;;;;;23.40;12.97;;;;;;;0.46;82.95;98020.19;5039212;28;20261;-79
2021/01/27 05:07:51;;;;;;;18.63;11.63;;;;;;;0.51;83.17;98023.59;5038507;28;20728;-80
2021/01/27 05:10:21;;;;;;;18.60;10.93;;;;;;;0.54;82.61;98007.34;5036480;28;20218;-80
2021/01/27 05:12:50;;;;;;;17.37;10.73;;;;;;;0.55;82.99;97994.53;5038391;28;20718;-80
2021/01/27 05:15:17;;;;;;;18.27;10.73;;;;;;;0.57;82.99;97997.94;5031635;28;20237;-78
2021/01/27 05:17:45;;;;;;;18.23;10.57;;;;;;;0.57;82.43;97997.94;5008317;28;20218;-79
2021/01/27 05:20:12;;;;;;;16.43;10.77;;;;;;;0.58;83.09;97994.50;5010046;28;20218;-79
2021/01/27 05:22:39;;;;;;;16.87;10.93;;;;;;;0.61;82.29;97987.66;5036748;28;20229;-80
2021/01/27 05:25:06;;;;;;;15.93;10.90;;;;;;;0.62;82.71;97984.25;5036005;28;20748;-79
2021/01/27 05:27:35;;;;;;;18.67;10.67;;;;;;;0.62;82.33;97977.38;5037460;28;20237;-78
2021/01/27 05:30:06;;;;;;;17.03;10.03;;;;;;;0.63;82.32;97978.25;5037364;28;20214;-80
2021/01/27 05:32:48;;;;;;;17.93;10.50;;;;;;;0.62;82.30;97973.97;5008456;28;20239;-79
2021/01/27 05:35:25;;;;;;;20.47;10.90;;;;;;;0.61;82.29;97972.25;5008648;28;20600;-80
2021/01/27 05:37:51;;;;;;;19.60;10.80;;;;;;;0.61;81.97;97967.09;5039039;28;20844;-80
2021/01/27 05:40:26;;;;;;;20.30;10.63;;;;;;;0.57;82.28;97963.72;5033849;28;20364;-80
2021/01/27 05:42:53;;;;;;;16.17;10.17;;;;;;;0.55;81.63;97971.44;5014494;28;20223;-79
2021/01/27 05:45:30;;;;;;;20.33;10.73;;;;;;;0.51;82.31;97963.72;5013577;28;20235;-79
2021/01/27 05:48:12;;;;;;;19.90;10.30;;;;;;;0.44;81.85;97960.31;5038465;28;20222;-79
2021/01/27 05:50:39;;;;;;;16.43;10.67;;;;;;;0.43;81.80;97968.03;5036235;28;20296;-80
2021/01/27 05:53:13;;;;;;;19.57;11.00;;;;;;;0.41;81.95;97968.00;5038861;28;20210;-81
2021/01/27 05:55:55;;;;;;;19.37;10.43;;;;;;;0.41;81.77;97980.00;5028952;28;21318;-81
2021/01/27 05:58:21;;;;;;;17.80;9.87;;;;;;;0.43;82.25;97981.69;5008910;28;20222;-81
2021/01/27 06:00:47;;;;;;;20.30;10.77;;;;;;;0.43;82.07;97976.56;5013357;28;20256;-80
2021/01/27 06:03:21;;;;;;;17.03;10.07;;;;;;;0.43;81.92;97978.28;5025480;28;20210;-79
2021/01/27 06:05:48;;;;;;;17.47;10.13;;;;;;;0.45;82.01;97977.41;5028479;28;20243;-79
2021/01/27 06:08:16;;;;;;;19.93;12.07;;;;;;;0.44;81.94;97975.72;5007892;28;20714;-80
2021/01/27 06:10:42;;;;;;;22.40;12.23;;;;;;;0.40;82.04;97968.84;5016980;28;20238;-79
2021/01/27 06:13:13;;;;;;;18.37;10.60;;;;;;;0.36;82.29;97973.13;5039300;28;20210;-80
2021/01/27 06:15:39;;;;;;;18.57;11.40;;;;;;;0.36;81.78;97974.84;5031648;28;20246;-80
2021/01/27 06:18:20;;;;;;;22.53;11.40;;;;;;;0.33;81.82;97972.28;5008704;28;20215;-80
2021/01/27 06:20:46;;;;;;;19.83;10.77;;;;;;;0.30;82.30;97969.75;5017466;28;20294;-81
2021/01/27 06:23:48;;;;;;;17.37;11.30;;;;;;;0.28;82.14;97971.44;5037301;28;20711;-80
2021/01/27 06:26:37;;;;;;;18.87;9.80;;;;;;;0.26;81.86;97976.56;4994682;28;20230;-81
2021/01/27 06:29:18;;;;;;;17.50;10.33;;;;;;;0.25;81.86;97976.56;5017046;28;20211;-80
2021/01/27 06:32:00;;;;;;;16.53;9.90;;;;;;;0.23;81.37;97973.16;5030709;28;20307;-80
2021/01/27 06:34:58;;;;;;;15.57;10.33;;;;;;;0.22;80.95;97974.88;5038366;28;20249;-81
2021/01/27 06:37:38;;;;;;;16.47;9.43;;;;;;;0.19;81.20;97980.00;5008444;28;20273;-80
2021/01/27 06:40:28;;;;;;;18.67;10.13;;;;;;;0.12;81.29;97973.16;5010687;28;20210;-81
2021/01/27 06:43:06;;;;;;;20.43;9.53;;;;;;;0.08;81.43;97976.59;5039288;28;20706;-80
2021/01/27 06:45:39;;;;;;;19.37;9.70;;;;;;;0.07;81.47;97970.56;5032344;28;20246;-80
2021/01/27 06:48:23;;;;;;;18.17;9.80;;;;;;;0.04;81.97;97973.16;5010325;28;20222;-80
2021/01/27 06:51:34;;;;;;;14.87;8.90;;;;;;;-0.01;80.96;97973.13;5019656;28;20942;-80
2021/01/27 06:54:39;;;;;;;19.70;9.83;;;;;;;-0.05;81.76;97970.59;5038705;28;20241;-79
2021/01/27 06:57:19;;;;;;;13.30;9.13;;;;;;;-0.08;81.62;97970.56;5013651;28;20238;-79
2021/01/27 07:00:22;;;;;;;16.77;9.40;;;;;;;-0.12;81.64;97968.88;5010883;28;20703;-83
2021/01/27 07:03:27;;;;;;;16.50;9.67;;;;;;;-0.17;81.11;97975.69;5016122;28;20606;-79
2021/01/27 07:06:24;;;;;;;15.23;9.47;;;;;;;-0.17;81.46;97975.69;5003207;28;20296;-80
2021/01/27 07:09:20;;;;;;;13.47;9.13;;;;;;;-0.15;81.48;97969.69;5020194;28;20229;-80
2021/01/27 07:11:53;;;;;;;16.37;9.30;;;;;;;-0.11;81.83;97965.44;5015262;28;20289;-79
2021/01/27 07:14:35;;;;;;;16.43;9.27;;;;;;;-0.09;81.84;97963.72;5017337;28;20242;-80
2021/01/27 07:17:09;;;;;;;16.03;9.60;;;;;;;-0.06;81.71;97963.72;5018220;28;20239;-80
2021/01/27 07:19:54;;;;;;;15.50;9.50;;;;;;;-0.03;81.18;97959.47;5019880;28;20978;-80
2021/01/27 07:22:25;;;;;;;15.73;9.70;;;;;;;0.00;81.38;97953.50;5015772;28;20238;-80
2021/01/27 07:24:59;;;;;;;16.47;9.93;;;;;;;0.02;81.80;97951.78;5022870;28;20242;-80
2021/01/27 07:27:26;;;;;;;17.13;9.67;;;;;;;0.06;81.32;97948.38;5039647;28;20245;-80
2021/01/27 07:29:56;;;;;;;15.63;9.37;;;;;;;0.06;81.06;97942.38;5041521;28;20214;-82
2021/01/27 07:32:24;;;;;;;15.40;9.30;;;;;;;0.07;81.24;97955.19;5040024;28;20246;-80
2021/01/27 07:34:54;;;;;;;15.43;8.83;;;;;;;0.01;80.73;97950.06;5043443;28;20244;-80
2021/01/27 07:37:24;;;;;;;17.33;10.03;;;;;;;-0.02;80.98;97962.88;5013006;28;20254;-80
2021/01/27 07:40:03;;;;;;;16.33;9.93;;;;;;;-0.01;81.28;97956.91;5013106;28;20210;-80
2021/01/27 07:42:35;;;;;;;16.30;8.63;;;;;;;-0.02;81.62;97966.31;5013366;28;20262;-79
2021/01/27 07:45:05;;;;;;;16.10;9.73;;;;;;;0.02;81.61;97972.31;5013837;28;20239;-80
2021/01/27 07:47:46;;;;;;;16.00;9.83;;;;;;;0.03;80.62;97981.69;5012393;28;20248;-81
2021/01/27 07:50:13;;;;;;;16.57;9.23;;;;;;;0.08;81.53;97979.16;5015001;28;20586;-79
2021/01/27 07:52:49;;;;;;;15.07;9.87;;;;;;;0.11;81.07;97982.56;5041854;28;20259;-79
2021/01/27 07:55:18;;;;;;;14.30;8.93;;;;;;;0.17;81.58;97982.56;5037586;28;20242;-80
2021/01/27 07:57:55;;;;;;;15.70;8.97;;;;;;;0.22;80.27;97981.69;5012699;28;20668;-79
2021/01/27 08:00:23;;;;;;;14.37;9.13;;;;;;;0.26;81.56;97991.97;5015903;28;20407;-79
2021/01/27 08:03:13;;;;;;;16.27;8.63;;;;;;;0.24;80.49;97987.69;5040412;28;20244;-80
2021/01/27 08:05:41;;;;;;;17.00;9.20;;;;;;;0.26;81.21;97991.97;5030352;28;20247;-79
2021/01/27 08:08:11;;;;;;;14.20;8.87;;;;;;;0.35;80.56;97985.97;5012740;28;20231;-79
2021/01/27 08:10:38;;;;;;;16.40;9.17;;;;;;;0.41;80.64;97992.81;5018149;28;20280;-79
2021/01/27 08:13:07;;;;;;;12.93;9.03;;;;;;;0.45;80.48;97992.81;5039552;28;20264;-79
2021/01/27 08:15:42;;;;;;;12.23;8.13;;;;;;;0.48;80.61;97987.69;5032566;28;20243;-79
2021/01/27 08:18:19;;;;;;;13.90;9.07;;;;;;;0.56;80.23;97987.66;5014085;28;20219;-79
2021/01/27 08:20:46;;;;;;;11.33;7.83;;;;;;;0.65;80.53;97984.25;5021160;28;20238;-80
2021/01/27 08:23:47;;;;;;;13.07;8.10;;;;;;;0.73;79.76;97996.19;5040040;28;20206;-80
2021/01/27 08:26:50;;;;;;;11.77;7.80;;;;;;;0.85;80.27;97989.34;5026809;28;20876;-80
2021/01/27 08:29:27;;;;;;;15.33;8.47;;;;;;;0.93;79.82;97969.63;5012736;28;20218;-79
2021/01/27 08:32:24;;;;;;;13.07;8.33;;;;;;;1.03;79.42;97976.44;5033978;28;20642;-79
2021/01/27 08:34:51;;;;;;;13.00;8.30;;;;;;;1.09;79.83;97980.69;5041737;28;20248;-79
2021/01/27 08:37:26;;;;;;;11.77;7.50;;;;;;;1.09;78.81;97978.13;5012386;28;20245;-79
2021/01/27 08:40:12;;;;;;;11.60;7.83;;;;;;;1.14;79.21;97978.97;5013247;28;20254;-79
2021/01/27 08:42:43;;;;;;;9.83;6.83;;;;;;;1.14;79.51;97976.41;5021440;28;20241;-80
2021/01/27 08:45:19;;;;;;;9.80;7.73;;;;;;;1.14;79.21;97973.84;5020021;28;20227;-80
2021/01/27 08:47:45;;;;;;;10.53;7.87;;;;;;;1.23;79.86;97967.78;5021975;28;20714;-79
2021/01/27 08:50:38;;;;;;;12.97;7.43;;;;;;;1.38;79.39;97977.13;5020305;28;20218;-79
2021/01/27 08:53:08;;;;;;;10.60;7.20;;;;;;;1.49;79.41;97976.25;5021079;28;20226;-79
2021/01/27 08:55:59;;;;;;;10.80;7.40;;;;;;;1.56;78.49;97968.50;5019064;28;20240;-79
2021/01/27 08:58:35;;;;;;;12.70;7.10;;;;;;;1.61;78.80;97970.16;5020667;28;20223;-80
2021/01/27 09:01:13;;;;;;;11.53;7.37;;;;;;;1.64;78.94;97974.47;5018929;28;20245;-79
2021/01/27 09:03:58;;;;;;;8.53;6.50;;;;;;;1.70;77.51;97966.69;5020272;28;20238;-79
2021/01/27 09:06:44;;;;;;;10.53;7.37;;;;;;;1.76;78.50;97966.66;5019201;28;20254;-78
2021/01/27 09:09:22;;;;;;;10.00;6.73;;;;;;;1.84;77.85;97969.16;5020878;28;20713;-80
2021/01/27 09:11:48;;;;;;;11.50;7.10;;;;;;;1.77;77.77;97964.94;5019182;28;20234;-79
2021/01/27 09:14:16;;;;;;;10.20;7.40;;;;;;;1.88;78.60;97958.00;5015955;28;20268;-79
2021/01/27 09:16:43;;;;;;;10.17;7.40;;;;;;;1.99;78.34;97958.78;5017004;28;20752;-80
2021/01/27 09:19:13;;;;;;;12.23;7.60;;;;;;;2.01;77.90;97957.06;5018473;28;20226;-79
2021/01/27 09:21:41;;;;;;;11.93;6.93;;;;;;;2.03;77.54;97952.75;5016832;28;20627;-78
2021/01/27 09:24:10;;;;;;;11.87;6.90;;;;;;;2.13;77.85;97950.94;5017750;28;20237;-80
2021/01/27 09:26:42;;;;;;;8.40;6.63;;;;;;;2.28;77.72;97948.25;5019421;28;20243;-79
2021/01/27 09:29:14;;;;;;;10.13;7.07;;;;;;;2.39;77.69;97949.88;5019778;28;20215;-80
2021/01/27 09:31:40;;;;;;;8.80;6.60;;;;;;;2.49;77.50;97956.66;5019192;28;20679;-81
2021/01/27 09:34:17;;;;;;;8.70;6.13;;;;;;;2.49;75.45;97947.19;5018217;28;20243;-81
2021/01/27 09:36:45;;;;;;;7.77;5.50;;;;;;;2.54;76.10;97948.88;5018118;28;20753;-80
2021/01/27 09:39:12;;;;;;;7.27;5.50;;;;;;;2.49;76.28;97946.34;5017158;28;20313;-80
2021/01/27 09:41:41;;;;;;;7.70;5.80;;;;;;;2.57;76.43;97948.84;5016755;28;20258;-80
2021/01/27 09:44:20;;;;;;;10.40;5.50;;;;;;;2.71;76.53;97947.00;5019606;28;20238;-80
2021/01/27 09:46:46;;;;;;;9.93;6.17;;;;;;;2.86;77.02;97936.50;5018478;28;20708;-80
2021/01/27 09:49:14;;;;;;;8.33;6.07;;;;;;;2.94;75.94;97935.59;5019519;28;20271;-81
2021/01/27 09:51:48;;;;;;;7.73;5.57;;;;;;;2.99;76.16;97942.38;5018619;28;20238;-80
2021/01/27 09:54:15;;;;;;;8.43;5.00;;;;;;;2.99;74.88;97944.13;5018169;28;20758;-80
2021/01/27 09:56:41;;;;;;;7.60;4.97;;;;;;;2.98;75.12;97943.28;5018638;28;20238;-80
2021/01/27 09:59:08;;;;;;;9.23;5.87;;;;;;;2.99;75.68;97944.13;5019227;28;20218;-80
2021/01/27 10:01:44;;;;;;;8.30;6.07;;;;;;;3.04;75.39;97944.91;5017584;28;20235;-81
2021/01/27 10:04:12;;;;;;;8.90;6.17;;;;;;;3.14;75.64;97946.50;5019377;28;20888;-81
2021/01/27 10:06:42;;;;;;;8.43;5.00;;;;;;;3.26;74.69;97945.50;5018871;28;20253;-80
2021/01/27 10:09:16;;;;;;;8.50;5.80;;;;;;;3.30;74.88;97936.00;5020515;28;20226;-80
2021/01/27 10:11:42;;;;;;;7.30;5.10;;;;;;;3.40;75.35;97927.28;5018172;28;20280;-80
2021/01/27 10:14:10;;;;;;;9.13;5.70;;;;;;;3.51;74.84;97917.69;5019049;28;20243;-82
2021/01/27 10:16:48;;;;;;;7.17;4.93;;;;;;;3.59;73.82;97923.56;5017708;28;20264;-80
2021/01/27 10:19:14;;;;;;;6.57;4.10;;;;;;;3.62;74.33;97912.34;5017756;28;20326;-80
2021/01/27 10:21:45;;;;;;;6.53;5.20;;;;;;;3.67;74.47;97911.41;5014359;28;20238;-81
2021/01/27 10:24:33;;;;;;;7.03;5.00;;;;;;;3.73;74.30;97915.66;5017198;28;20238;-80
2021/01/27 10:27:01;;;;;;;7.07;5.07;;;;;;;3.78;74.27;97907.81;5017943;28;20809;-80
2021/01/27 10:29:36;;;;;;;7.60;4.90;;;;;;;3.81;74.09;97918.94;5019561;28;20681;-80
2021/01/27 10:32:37;;;;;;;10.40;5.17;;;;;;;3.83;72.83;97906.88;5018245;28;20276;-81
2021/01/27 10:35:28;;;;;;;6.80;5.00;;;;;;;3.88;73.63;97901.66;5016332;28;20237;-79
2021/01/27 10:38:19;;;;;;;7.47;4.93;;;;;;;3.91;72.77;97899.00;5039508;28;20964;-80
2021/01/27 10:41:08;;;;;;;7.57;5.00;;;;;;;3.96;73.06;97902.38;5030041;28;20247;-81
2021/01/27 10:43:34;;;;;;;6.77;5.30;;;;;;;3.99;72.92;97906.66;5013090;28;20271;-80
2021/01/27 10:46:00;;;;;;;7.10;5.43;;;;;;;4.01;73.08;97895.41;5019524;28;20256;-81
2021/01/27 10:48:29;;;;;;;7.93;5.90;;;;;;;4.03;72.73;97891.06;5034344;28;20221;-80
2021/01/27 10:51:00;;;;;;;9.83;5.63;;;;;;;4.09;72.71;97902.19;5036896;28;20917;-80
2021/01/27 10:53:27;;;;;;;7.33;5.37;;;;;;;4.10;72.46;97894.41;5038329;28;20221;-79
2021/01/27 10:55:55;;;;;;;8.40;5.67;;;;;;;4.13;72.33;97883.19;5024049;28;20843;-80
2021/01/27 10:58:23;;;;;;;7.57;5.07;;;;;;;4.16;72.66;97883.13;5010686;28;20223;-80
2021/01/27 11:00:50;;;;;;;7.10;5.60;;;;;;;4.20;72.83;97884.78;5010883;28;20242;-80
2021/01/27 11:03:17;;;;;;;8.90;5.40;;;;;;;4.22;72.79;97878.69;5036953;28;20221;-80
2021/01/27 11:05:44;;;;;;;7.40;5.57;;;;;;;4.22;72.92;97877.84;5028115;28;20335;-79
2021/01/27 11:08:12;;;;;;;6.10;4.80;;;;;;;4.17;72.62;97874.50;5002377;28;20269;-80
2021/01/27 11:10:38;;;;;;;7.53;5.50;;;;;;;4.12;72.61;97871.13;5014359;28;20229;-79
2021/01/27 11:13:05;;;;;;;6.20;4.67;;;;;;;4.14;72.40;97870.25;5039664;28;20222;-80
2021/01/27 11:15:32;;;;;;;6.27;5.17;;;;;;;4.19;72.19;97871.03;5030396;28;20239;-79
2021/01/27 11:17:58;;;;;;;6.70;4.67;;;;;;;4.18;72.31;97869.31;5010944;28;20226;-80
2021/01/27 11:20:26;;;;;;;8.20;5.40;;;;;;;4.10;71.90;97865.16;5011490;28;20718;-80
2021/01/27 11:22:53;;;;;;;7.90;5.73;;;;;;;3.94;72.01;97857.69;5039081;28;20229;-80
2021/01/27 11:25:20;;;;;;;9.80;6.77;;;;;;;3.96;71.67;97850.75;5032538;28;20230;-80
2021/01/27 11:27:46;;;;;;;6.17;4.57;;;;;;;3.96;71.36;97850.75;5010151;28;20215;-80
2021/01/27 11:30:16;;;;;;;6.47;4.67;;;;;;;4.05;71.73;97848.03;5010665;28;20707;-81
2021/01/27 11:32:43;;;;;;;6.97;5.47;;;;;;;4.13;71.18;97852.19;5038946;28;20214;-80
2021/01/27 11:35:10;;;;;;;7.70;5.17;;;;;;;4.19;71.44;97857.25;5037002;28;20238;-80
2021/01/27 11:37:36;;;;;;;6.00;4.37;;;;;;;4.00;69.61;97854.16;5008162;28;20223;-80
2021/01/27 11:40:04;;;;;;;5.77;4.20;;;;;;;3.93;70.31;97850.81;5008921;28;20229;-81
2021/01/27 11:42:30;;;;;;;7.23;4.70;;;;;;;3.89;70.25;97854.31;5037841;28;20726;-79
2021/01/27 11:44:56;;;;;;;6.47;5.10;;;;;;;3.81;70.24;97851.03;5036991;28;20264;-79
2021/01/27 11:47:22;;;;;;;7.43;5.30;;;;;;;3.86;70.92;97855.22;5007450;28;20731;-81
2021/01/27 11:49:49;;;;;;;5.53;3.97;;;;;;;3.74;69.75;97833.94;5008084;28;20224;-80
2021/01/27 11:52:16;;;;;;;9.00;5.43;;;;;;;3.62;70.31;97834.97;5032802;28;20730;-81
2021/01/27 11:54:43;;;;;;;5.57;4.70;;;;;;;3.62;70.33;97830.69;5034821;28;20238;-80